Time;durP1;ratioP1;P1;durP2;ratioP2;P2;SDS_P1;SDS_P2;PMS_P1;PMS_P2;Temp;Humidity;BMP_temperature;BMP_pressure;BME280_temperature;BME280_humidity;BME280_pressure;Samples;Min_cycle;Max_cycle;Signal;HPM_P1;HPM_P2
2022/04/03 05:00:39;;;;;;;12.17;11.10;;;3.80;97.20;;;;;;1696645;29;20186;-69
2022/04/03 05:01:30;;;;;;;12.90;11.70;;;3.80;97.20;;;;;;1694145;29;20232;-69
2022/04/03 05:02:21;;;;;;;14.07;12.70;;;3.80;97.20;;;;;;1696873;29;20203;-69
2022/04/03 05:03:12;;;;;;;13.23;12.07;;;3.80;97.20;;;;;;1700515;29;20246;-69
2022/04/03 05:04:04;;;;;;;11.67;10.63;;;3.80;97.20;;;;;;1700578;29;20233;-69
2022/04/03 05:04:55;;;;;;;13.52;12.20;;;3.80;97.20;;;;;;1700697;29;20210;-70
2022/04/03 05:05:48;;;;;;;13.10;11.90;;;3.80;97.20;;;;;;1700060;29;20206;-69
2022/04/03 05:06:39;;;;;;;13.52;12.23;;;3.80;97.20;;;;;;1700602;29;20196;-69
2022/04/03 05:07:31;;;;;;;12.80;11.60;;;3.80;97.20;;;;;;1700597;29;20210;-70
2022/04/03 05:08:22;;;;;;;12.70;11.50;;;3.80;97.20;;;;;;1700240;29;20211;-69
2022/04/03 05:09:14;;;;;;;12.98;11.88;;;3.80;97.20;;;;;;1700432;29;20667;-69
2022/04/03 05:10:06;;;;;;;13.60;12.30;;;3.80;97.20;;;;;;1700610;29;20250;-69
2022/04/03 05:10:58;;;;;;;12.63;11.45;;;3.80;97.20;;;;;;1700595;29;20195;-69
2022/04/03 05:11:49;;;;;;;13.45;12.15;;;3.80;97.20;;;;;;1700523;29;20211;-69
2022/04/03 05:12:42;;;;;;;12.30;11.20;;;3.80;97.20;;;;;;1700612;29;20324;-70
2022/04/03 05:13:33;;;;;;;13.65;12.35;;;3.90;97.20;;;;;;1700678;29;20203;-69
2022/04/03 05:14:25;;;;;;;13.27;12.07;;;3.90;97.20;;;;;;1700379;29;20231;-69
2022/04/03 05:15:18;;;;;;;12.38;11.32;;;3.90;97.20;;;;;;1700462;29;20214;-69
2022/04/03 05:16:12;;;;;;;12.63;11.35;;;3.90;97.20;;;;;;1695647;29;20619;-69
2022/04/03 05:17:03;;;;;;;12.77;11.68;;;3.90;97.20;;;;;;1693975;29;20215;-69
2022/04/03 05:17:55;;;;;;;13.05;11.82;;;3.90;97.20;;;;;;1693927;29;20199;-69
2022/04/03 05:18:46;;;;;;;13.50;12.10;;;3.90;97.20;;;;;;1693605;29;20196;-69
2022/04/03 05:19:38;;;;;;;12.53;11.50;;;3.90;97.20;;;;;;1694025;29;20204;-69
2022/04/03 05:20:29;;;;;;;14.00;12.70;;;3.90;97.20;;;;;;1693935;29;20484;-69
2022/04/03 05:21:22;;;;;;;12.07;10.98;;;3.90;97.20;;;;;;1693936;29;20635;-69
2022/04/03 05:22:13;;;;;;;13.93;12.63;;;3.90;97.20;;;;;;1693975;29;20690;-69
2022/04/03 05:23:05;;;;;;;12.70;11.60;;;3.90;97.20;;;;;;1698823;29;20211;-69
2022/04/03 05:23:56;;;;;;;12.48;11.38;;;3.90;97.20;;;;;;1700408;29;20522;-69
2022/04/03 05:24:48;;;;;;;12.48;11.27;;;3.90;97.20;;;;;;1700543;29;20207;-69
2022/04/03 05:25:39;;;;;;;12.40;11.10;;;3.90;97.20;;;;;;1700167;29;20230;-69
2022/04/03 05:26:30;;;;;;;12.57;11.50;;;3.90;97.20;;;;;;1700289;29;20223;-69
2022/04/03 05:27:21;;;;;;;13.55;12.35;;;3.90;97.20;;;;;;1700440;29;20638;-69
2022/04/03 05:28:13;;;;;;;12.75;11.55;;;3.90;97.20;;;;;;1700165;29;20328;-69
2022/04/03 05:29:04;;;;;;;12.88;11.75;;;3.90;97.20;;;;;;1700493;29;20307;-69
2022/04/03 05:29:56;;;;;;;12.52;11.43;;;3.90;97.20;;;;;;1700488;29;20208;-69
2022/04/03 05:30:47;;;;;;;12.10;11.00;;;3.90;97.20;;;;;;1700437;29;20203;-69
2022/04/03 05:31:40;;;;;;;13.55;12.15;;;3.90;97.20;;;;;;1700549;29;20210;-69
2022/04/03 05:32:32;;;;;;;13.45;11.98;;;3.90;97.20;;;;;;1700431;29;20210;-69
2022/04/03 05:33:23;;;;;;;12.65;11.45;;;3.90;97.20;;;;;;1699884;29;20532;-69
2022/04/03 05:34:14;;;;;;;12.80;11.60;;;3.90;97.20;;;;;;1700402;29;20281;-69
2022/04/03 05:35:07;;;;;;;13.00;11.80;;;3.90;97.20;;;;;;1700538;29;20211;-69
2022/04/03 05:35:58;;;;;;;12.90;11.60;;;3.90;97.20;;;;;;1699983;29;21897;-69
2022/04/03 05:36:50;;;;;;;12.90;11.60;;;3.90;97.20;;;;;;1700444;29;20717;-69
2022/04/03 05:37:41;;;;;;;12.70;11.50;;;3.90;97.20;;;;;;1700423;29;20208;-69
2022/04/03 05:38:32;;;;;;;13.33;12.17;;;3.90;97.20;;;;;;1700165;29;20199;-69
2022/04/03 05:39:23;;;;;;;12.80;11.50;;;3.90;97.20;;;;;;1700348;29;20566;-69
2022/04/03 05:40:15;;;;;;;13.33;12.23;;;3.90;97.20;;;;;;1700381;29;20577;-69
2022/04/03 05:41:06;;;;;;;14.18;12.88;;;3.90;97.20;;;;;;1698238;29;20211;-69
2022/04/03 05:41:57;;;;;;;13.33;11.97;;;4.00;97.20;;;;;;1694079;29;20203;-68
2022/04/03 05:42:48;;;;;;;13.50;12.40;;;3.90;97.20;;;;;;1693949;29;20683;-69
2022/04/03 05:43:40;;;;;;;14.60;13.10;;;4.00;97.20;;;;;;1693912;29;20595;-68
2022/04/03 05:44:31;;;;;;;13.77;12.48;;;4.00;97.20;;;;;;1693541;29;20216;-68
2022/04/03 05:45:23;;;;;;;13.45;12.15;;;4.00;97.20;;;;;;1693882;29;20671;-68
2022/04/03 05:46:14;;;;;;;13.32;12.13;;;4.00;97.20;;;;;;1698051;29;20246;-68
2022/04/03 05:47:08;;;;;;;13.50;12.30;;;4.00;97.20;;;;;;1700433;29;20203;-68
2022/04/03 05:47:58;;;;;;;13.95;12.63;;;4.00;97.20;;;;;;1700693;29;20208;-68
2022/04/03 05:48:50;;;;;;;12.93;11.80;;;4.00;97.20;;;;;;1700215;29;20294;-69
2022/04/03 05:49:41;;;;;;;14.50;13.20;;;4.10;97.20;;;;;;1699662;29;20203;-69
2022/04/03 05:50:33;;;;;;;13.93;12.63;;;4.10;97.20;;;;;;1700231;29;20196;-68
2022/04/03 05:51:23;;;;;;;12.90;11.70;;;4.10;97.20;;;;;;1700376;29;20756;-69
2022/04/03 05:52:15;;;;;;;13.37;12.07;;;4.10;97.20;;;;;;1700256;29;20690;-69
2022/04/03 05:53:06;;;;;;;14.00;12.70;;;4.10;97.20;;;;;;1700481;29;20222;-69
2022/04/03 05:53:58;;;;;;;14.03;12.73;;;4.10;97.20;;;;;;1700383;29;20225;-69
2022/04/03 05:54:48;;;;;;;13.52;12.43;;;4.10;97.20;;;;;;1700357;29;20223;-69
2022/04/03 05:55:40;;;;;;;13.67;12.47;;;4.20;97.20;;;;;;1700107;29;20217;-69
2022/04/03 05:56:31;;;;;;;12.95;11.75;;;4.20;97.20;;;;;;1700073;29;20608;-69
2022/04/03 05:57:22;;;;;;;13.40;12.17;;;4.20;97.20;;;;;;1700318;29;20202;-69
2022/04/03 05:58:13;;;;;;;13.80;12.40;;;4.20;97.20;;;;;;1699813;29;20831;-68
2022/04/03 05:59:05;;;;;;;13.00;11.80;;;4.20;97.20;;;;;;1700537;29;20599;-68
2022/04/03 05:59:56;;;;;;;13.40;12.23;;;4.20;97.20;;;;;;1700470;29;20688;-68
2022/04/03 06:00:47;;;;;;;13.80;12.60;;;4.20;97.20;;;;;;1700613;29;20194;-69
2022/04/03 06:01:38;;;;;;;13.85;12.57;;;4.20;97.20;;;;;;1700494;29;20675;-71
2022/04/03 06:02:31;;;;;;;13.77;12.37;;;4.20;97.20;;;;;;1700469;29;20225;-71
2022/04/03 06:03:22;;;;;;;13.77;12.57;;;4.20;97.20;;;;;;1700049;29;20211;-69
2022/04/03 06:04:14;;;;;;;13.27;11.97;;;4.30;97.20;;;;;;1700427;29;20299;-69
2022/04/03 06:05:05;;;;;;;13.02;11.93;;;4.30;97.20;;;;;;1701439;29;20222;-69
2022/04/03 06:05:57;;;;;;;12.68;11.48;;;4.30;97.20;;;;;;1698700;29;20259;-70
2022/04/03 06:06:48;;;;;;;13.45;12.25;;;4.30;97.20;;;;;;1695785;29;20675;-69
2022/04/03 06:07:38;;;;;;;13.80;12.40;;;4.30;97.20;;;;;;1695348;29;20543;-70
2022/04/03 06:08:31;;;;;;;14.27;12.33;;;4.30;97.20;;;;;;1694839;29;20199;-70
2022/04/03 06:09:21;;;;;;;13.70;12.40;;;4.30;97.20;;;;;;1695060;29;20211;-69
2022/04/03 06:10:14;;;;;;;12.80;11.70;;;4.30;97.20;;;;;;1695246;29;20259;-69
2022/04/03 06:11:05;;;;;;;13.20;11.88;;;4.30;97.20;;;;;;1695190;29;20223;-69
2022/04/03 06:11:57;;;;;;;13.03;11.83;;;4.30;97.20;;;;;;1695145;29;20718;-69
2022/04/03 06:12:52;;;;;;;14.15;12.85;;;4.40;97.20;;;;;;1695217;29;20444;-69
2022/04/03 06:13:43;;;;;;;13.02;11.90;;;4.30;97.20;;;;;;1694988;29;20207;-69
2022/04/03 06:14:34;;;;;;;13.20;11.82;;;4.40;97.20;;;;;;1695280;29;20238;-69
2022/04/03 06:15:27;;;;;;;13.57;12.37;;;4.40;97.20;;;;;;1695304;29;20207;-69
2022/04/03 06:16:18;;;;;;;12.57;11.48;;;4.40;97.20;;;;;;1701265;29;20199;-69
2022/04/03 06:17:10;;;;;;;14.37;12.97;;;4.40;97.20;;;;;;1701622;29;20232;-69
2022/04/03 06:18:04;;;;;;;12.77;11.48;;;4.40;97.20;;;;;;1701549;29;20199;-70
2022/04/03 06:18:55;;;;;;;11.88;10.82;;;4.50;97.20;;;;;;1701619;29;20210;-69
2022/04/03 06:19:46;;;;;;;11.35;10.32;;;4.50;97.20;;;;;;1701576;29;20278;-69
2022/04/03 06:20:39;;;;;;;12.27;11.10;;;4.50;97.20;;;;;;1701652;29;20211;-70
2022/04/03 06:21:29;;;;;;;12.27;11.18;;;4.50;97.20;;;;;;1701702;29;20238;-70
2022/04/03 06:22:21;;;;;;;11.90;10.80;;;4.50;97.20;;;;;;1701663;29;20203;-70
2022/04/03 06:23:13;;;;;;;11.23;10.23;;;4.60;97.20;;;;;;1696640;29;20686;-69
2022/04/03 06:24:05;;;;;;;11.70;10.60;;;4.60;97.20;;;;;;1694887;29;20235;-70
2022/04/03 06:24:56;;;;;;;12.13;10.57;;;4.60;97.20;;;;;;1695090;29;20208;-70
2022/04/03 06:25:49;;;;;;;11.37;10.37;;;4.70;97.20;;;;;;1696364;29;20217;-70
2022/04/03 06:26:41;;;;;;;11.27;10.38;;;4.70;97.20;;;;;;1697221;29;20253;-69
2022/04/03 06:27:33;;;;;;;11.10;10.10;;;4.70;97.20;;;;;;1697178;29;20218;-70
2022/04/03 06:28:25;;;;;;;11.05;10.15;;;4.80;97.20;;;;;;1696945;29;20206;-69
2022/04/03 06:29:16;;;;;;;10.65;9.68;;;4.80;97.20;;;;;;1697587;29;20196;-70
2022/04/03 06:30:08;;;;;;;10.75;9.65;;;4.80;97.20;;;;;;1698542;29;20200;-70
2022/04/03 06:31:00;;;;;;;10.32;9.45;;;4.90;97.20;;;;;;1697577;29;20730;-70
2022/04/03 06:31:51;;;;;;;10.40;9.50;;;4.90;97.20;;;;;;1697346;29;20211;-70
2022/04/03 06:32:44;;;;;;;9.67;8.77;;;5.00;97.20;;;;;;1695962;29;20294;-70
2022/04/03 06:33:36;;;;;;;9.35;8.55;;;5.00;97.20;;;;;;1698092;29;20214;-70
2022/04/03 06:34:28;;;;;;;10.60;9.68;;;5.00;97.20;;;;;;1697192;29;20202;-70
2022/04/03 06:35:19;;;;;;;10.30;9.40;;;5.10;97.20;;;;;;1697978;29;20250;-70
2022/04/03 06:36:11;;;;;;;10.13;9.20;;;5.10;97.20;;;;;;1699416;29;20324;-70
2022/04/03 06:37:03;;;;;;;11.25;10.07;;;5.20;97.20;;;;;;1699766;29;20203;-71
2022/04/03 06:37:55;;;;;;;10.05;9.00;;;5.20;97.20;;;;;;1697544;29;20691;-70
2022/04/03 06:38:45;;;;;;;9.98;8.80;;;5.30;97.20;;;;;;1698227;29;20697;-70
2022/04/03 06:39:37;;;;;;;10.03;9.13;;;5.30;97.20;;;;;;1701121;29;20621;-70
2022/04/03 06:40:28;;;;;;;10.55;9.60;;;5.40;97.20;;;;;;1694930;29;20492;-70
2022/04/03 06:41:22;;;;;;;10.43;9.20;;;5.40;97.20;;;;;;1694947;29;20203;-71
2022/04/03 06:42:13;;;;;;;9.90;9.05;;;5.50;97.20;;;;;;1694981;29;20274;-71
2022/04/03 06:43:05;;;;;;;9.10;8.20;;;5.50;97.20;;;;;;1695064;29;20266;-70
2022/04/03 06:43:57;;;;;;;9.52;8.70;;;5.60;97.20;;;;;;1694773;29;20552;-70
2022/04/03 06:44:49;;;;;;;9.93;8.98;;;5.60;97.20;;;;;;1695010;29;20290;-71
2022/04/03 06:45:39;;;;;;;9.43;8.63;;;5.70;97.20;;;;;;1694763;29;20691;-71
2022/04/03 06:46:32;;;;;;;9.60;8.70;;;5.70;97.20;;;;;;1701401;29;20603;-70
2022/04/03 06:47:23;;;;;;;8.80;8.02;;;5.70;97.20;;;;;;1701435;29;20207;-70
2022/04/03 06:48:15;;;;;;;9.27;7.83;;;5.80;97.20;;;;;;1701160;29;20203;-70
2022/04/03 06:49:07;;;;;;;8.60;7.80;;;5.80;97.20;;;;;;1701404;29;20207;-70
2022/04/03 06:49:59;;;;;;;9.38;8.57;;;5.90;97.20;;;;;;1701450;29;20751;-71
2022/04/03 06:50:50;;;;;;;9.35;8.43;;;5.90;97.20;;;;;;1701453;29;20210;-70
2022/04/03 06:51:41;;;;;;;8.50;7.63;;;6.00;97.20;;;;;;1701466;29;20209;-70
2022/04/03 06:52:32;;;;;;;8.65;7.95;;;6.00;97.20;;;;;;1701434;29;20450;-70
2022/04/03 06:53:24;;;;;;;8.33;7.60;;;6.10;97.20;;;;;;1701406;29;20295;-70
2022/04/03 06:54:15;;;;;;;8.95;8.15;;;6.10;97.20;;;;;;1700716;29;20254;-70
2022/04/03 06:55:08;;;;;;;9.50;8.10;;;6.10;97.20;;;;;;1701469;29;20207;-70
2022/04/03 06:55:59;;;;;;;7.88;7.18;;;6.20;97.20;;;;;;1701020;29;20274;-70
2022/04/03 06:56:53;;;;;;;8.33;7.53;;;6.30;97.20;;;;;;1701411;29;20195;-70
2022/04/03 06:57:44;;;;;;;8.80;8.10;;;6.30;97.20;;;;;;1701481;29;20215;-70
2022/04/03 06:58:35;;;;;;;8.80;7.90;;;6.40;97.20;;;;;;1701110;29;20199;-70
2022/04/03 06:59:27;;;;;;;8.55;7.65;;;6.50;97.20;;;;;;1701316;29;20211;-70
2022/04/03 07:00:19;;;;;;;8.20;7.50;;;6.50;97.20;;;;;;1700232;29;20211;-70
2022/04/03 07:01:10;;;;;;;8.73;7.38;;;6.60;97.20;;;;;;1694847;29;20212;-70
2022/04/03 07:02:03;;;;;;;7.63;6.83;;;6.70;97.20;;;;;;1694933;29;20207;-70
2022/04/03 07:02:54;;;;;;;8.70;7.88;;;6.70;97.20;;;;;;1694900;29;20204;-71
2022/04/03 07:03:46;;;;;;;8.37;7.67;;;6.80;97.20;;;;;;1695124;29;20230;-71
2022/04/03 07:04:38;;;;;;;8.32;7.32;;;6.90;97.20;;;;;;1694771;29;20479;-70
2022/04/03 07:05:30;;;;;;;7.68;7.07;;;7.00;97.20;;;;;;1694790;29;20742;-71
2022/04/03 07:06:20;;;;;;;7.95;7.15;;;7.00;97.20;;;;;;1700387;29;20249;-71
2022/04/03 07:07:20;;;;;;;7.57;6.90;;;7.10;97.20;;;;;;1700721;29;20207;-71
2022/04/03 07:08:11;;;;;;;7.75;6.95;;;7.10;97.20;;;;;;1700356;29;20242;-71
2022/04/03 07:09:03;;;;;;;7.37;6.70;;;7.20;97.20;;;;;;1700843;29;20210;-71
2022/04/03 07:09:53;;;;;;;7.50;6.90;;;7.20;97.20;;;;;;1700827;29;20387;-71
2022/04/03 07:10:46;;;;;;;8.50;7.70;;;7.30;97.20;;;;;;1700191;29;20286;-71
2022/04/03 07:11:36;;;;;;;7.47;6.85;;;7.30;97.20;;;;;;1700783;29;20210;-71
2022/04/03 07:12:28;;;;;;;8.50;7.77;;;7.40;97.20;;;;;;1700649;29;20241;-71
2022/04/03 07:13:19;;;;;;;8.38;7.57;;;7.40;97.20;;;;;;1700645;29;20537;-71
2022/04/03 07:14:10;;;;;;;9.23;7.70;;;7.50;97.20;;;;;;1700649;29;20235;-71
2022/04/03 07:15:01;;;;;;;7.63;6.90;;;7.60;97.20;;;;;;1700390;29;20203;-71
2022/04/03 07:15:53;;;;;;;8.07;7.40;;;7.70;97.20;;;;;;1700255;29;20210;-71
2022/04/03 07:16:44;;;;;;;9.75;7.65;;;7.70;97.20;;;;;;1694249;29;20944;-71
2022/04/03 07:17:36;;;;;;;8.07;7.30;;;7.80;97.20;;;;;;1694179;29;20594;-71
2022/04/03 07:18:30;;;;;;;8.75;7.85;;;7.80;97.20;;;;;;1694003;29;20207;-71
2022/04/03 07:19:22;;;;;;;9.32;7.13;;;7.90;97.20;;;;;;1694105;29;20272;-71
2022/04/03 07:20:15;;;;;;;7.97;7.28;;;7.90;97.20;;;;;;1694402;29;20528;-69
2022/04/03 07:21:07;;;;;;;9.10;8.15;;;8.00;97.20;;;;;;1687678;29;20580;-70
2022/04/03 07:21:58;;;;;;;8.05;7.35;;;8.00;97.20;;;;;;1687850;29;20208;-70
2022/04/03 07:22:51;;;;;;;7.73;7.13;;;8.10;97.20;;;;;;1692285;29;20204;-71
2022/04/03 07:23:42;;;;;;;7.00;6.40;;;8.20;97.20;;;;;;1694668;29;20204;-71
2022/04/03 07:24:34;;;;;;;7.40;6.80;;;8.40;97.20;;;;;;1694730;29;20227;-71
2022/04/03 07:25:24;;;;;;;8.18;7.43;;;8.50;97.20;;;;;;1694559;29;20626;-71
2022/04/03 07:26:16;;;;;;;7.60;6.87;;;8.60;97.20;;;;;;1699093;29;20581;-71
2022/04/03 07:27:07;;;;;;;7.40;6.80;;;8.70;97.20;;;;;;1700950;29;20583;-71
2022/04/03 07:27:59;;;;;;;8.48;7.60;;;8.80;97.20;;;;;;1695795;29;20204;-70
2022/04/03 07:28:50;;;;;;;7.35;6.65;;;8.90;97.20;;;;;;1694381;29;20239;-71
2022/04/03 07:29:41;;;;;;;7.70;7.00;;;9.00;97.20;;;;;;1699049;29;20202;-70
2022/04/03 07:30:32;;;;;;;8.10;7.40;;;9.00;97.20;;;;;;1701341;29;20674;-70
2022/04/03 07:31:25;;;;;;;8.20;7.43;;;9.10;97.20;;;;;;1701251;29;20689;-71
2022/04/03 07:32:16;;;;;;;7.53;6.82;;;9.20;97.20;;;;;;1701158;29;20463;-72
2022/04/03 07:33:07;;;;;;;8.30;6.90;;;9.30;97.20;;;;;;1701280;29;20234;-73
2022/04/03 07:33:58;;;;;;;7.65;6.88;;;9.30;97.20;;;;;;1701220;29;20620;-70
2022/04/03 07:34:50;;;;;;;7.97;7.17;;;9.40;97.20;;;;;;1701216;29;20570;-72
2022/04/03 07:35:42;;;;;;;7.00;6.40;;;9.40;97.20;;;;;;1700935;29;20214;-71
2022/04/03 07:36:34;;;;;;;6.63;6.03;;;9.50;97.20;;;;;;1700774;29;20206;-70
2022/04/03 07:37:24;;;;;;;7.05;6.45;;;9.50;97.20;;;;;;1701220;29;20231;-70
2022/04/03 07:38:16;;;;;;;7.33;6.63;;;9.50;97.20;;;;;;1700878;29;20206;-71
2022/04/03 07:39:09;;;;;;;7.20;6.60;;;9.60;97.20;;;;;;1701154;29;20230;-70
2022/04/03 07:40:03;;;;;;;7.50;6.80;;;9.60;97.20;;;;;;1701158;29;20199;-70
2022/04/03 07:40:54;;;;;;;7.70;7.00;;;9.70;97.20;;;;;;1701228;29;20215;-70
2022/04/03 07:41:46;;;;;;;7.20;6.60;;;9.80;97.20;;;;;;1701236;29;20290;-70
2022/04/03 07:42:39;;;;;;;6.70;6.10;;;9.90;97.20;;;;;;1701289;29;20838;-70
2022/04/03 07:43:32;;;;;;;9.40;6.68;;;10.00;97.20;;;;;;1701162;29;20210;-70
2022/04/03 07:44:23;;;;;;;6.95;6.35;;;10.10;97.20;;;;;;1696928;29;20223;-70
2022/04/03 07:45:15;;;;;;;7.03;6.37;;;10.20;97.20;;;;;;1694576;29;20267;-70
2022/04/03 07:46:07;;;;;;;6.72;6.13;;;10.30;97.20;;;;;;1699596;29;20207;-70
2022/04/03 07:46:59;;;;;;;6.80;6.20;;;10.40;97.20;;;;;;1701221;29;20199;-70
2022/04/03 07:47:52;;;;;;;6.82;6.22;;;10.50;97.20;;;;;;1701127;29;20671;-70
2022/04/03 07:48:43;;;;;;;7.25;6.65;;;10.50;97.20;;;;;;1701008;29;20234;-71
2022/04/03 07:49:36;;;;;;;6.28;5.68;;;10.60;97.20;;;;;;1701010;29;20609;-71
2022/04/03 07:50:27;;;;;;;6.53;5.85;;;10.70;97.20;;;;;;1701071;29;20214;-70
2022/04/03 07:51:21;;;;;;;6.80;6.20;;;10.70;97.20;;;;;;1701041;29;20203;-70
2022/04/03 07:52:12;;;;;;;6.85;6.25;;;10.80;97.20;;;;;;1701146;29;20230;-70
2022/04/03 07:53:04;;;;;;;6.97;6.30;;;10.80;97.20;;;;;;1701089;29;20226;-70
2022/04/03 07:53:55;;;;;;;7.40;6.75;;;10.80;97.20;;;;;;1701088;29;20215;-71
2022/04/03 07:54:47;;;;;;;8.55;7.40;;;10.80;97.20;;;;;;1701109;29;20686;-71
2022/04/03 07:55:38;;;;;;;6.60;6.00;;;10.90;97.20;;;;;;1698937;29;20248;-70
2022/04/03 07:56:30;;;;;;;7.60;6.80;;;10.90;97.20;;;;;;1700858;29;20199;-70
2022/04/03 07:57:23;;;;;;;7.43;6.72;;;11.00;97.20;;;;;;1701051;29;20451;-71
2022/04/03 07:58:15;;;;;;;6.57;5.97;;;11.10;97.20;;;;;;1700728;29;20254;-70
2022/04/03 07:59:06;;;;;;;6.78;6.18;;;11.10;97.20;;;;;;1701101;29;20211;-70
2022/04/03 07:59:57;;;;;;;7.50;6.80;;;11.20;97.20;;;;;;1700417;29;20206;-70
2022/04/03 08:00:48;;;;;;;7.70;7.00;;;11.20;97.20;;;;;;1701083;29;20231;-70
2022/04/03 08:01:40;;;;;;;6.70;6.10;;;11.20;97.20;;;;;;1701239;29;20207;-70
2022/04/03 08:02:31;;;;;;;7.22;6.63;;;11.20;97.20;;;;;;1701035;29;20207;-70
2022/04/03 08:03:23;;;;;;;7.10;6.13;;;11.10;97.20;;;;;;1701071;29;20203;-70
2022/04/03 08:04:13;;;;;;;7.28;6.57;;;11.10;97.20;;;;;;1700835;29;20230;-70
2022/04/03 08:05:06;;;;;;;6.40;5.90;;;11.00;97.20;;;;;;1700597;29;20241;-70
2022/04/03 08:05:57;;;;;;;7.10;6.40;;;11.00;97.20;;;;;;1699094;29;20447;-70
2022/04/03 08:06:50;;;;;;;8.10;6.83;;;10.90;97.20;;;;;;1701020;29;20223;-71
2022/04/03 08:07:43;;;;;;;6.75;6.15;;;10.80;97.20;;;;;;1701141;29;20487;-71
2022/04/03 08:08:35;;;;;;;10.15;7.00;;;10.80;97.20;;;;;;1699440;29;20203;-70
2022/04/03 08:09:26;;;;;;;7.50;6.80;;;10.80;97.20;;;;;;1700908;29;20214;-70
2022/04/03 08:10:19;;;;;;;8.80;7.23;;;10.80;97.20;;;;;;1700989;29;20203;-70
2022/04/03 08:11:10;;;;;;;6.70;6.10;;;10.80;97.20;;;;;;1701032;29;20736;-70
2022/04/03 08:12:02;;;;;;;7.40;6.70;;;10.80;97.20;;;;;;1701092;29;20631;-71
2022/04/03 08:12:53;;;;;;;7.88;7.07;;;10.80;97.20;;;;;;1701033;29;20690;-70
2022/04/03 08:13:45;;;;;;;6.85;6.28;;;10.80;97.20;;;;;;1700975;29;20274;-70
2022/04/03 08:14:36;;;;;;;6.60;6.00;;;10.70;97.20;;;;;;1700272;29;20199;-70
2022/04/03 08:15:28;;;;;;;6.70;6.10;;;10.70;97.20;;;;;;1700658;29;20214;-71
2022/04/03 08:16:18;;;;;;;6.82;6.13;;;10.70;97.20;;;;;;1700686;29;20262;-70
2022/04/03 08:17:10;;;;;;;7.63;7.00;;;10.60;97.20;;;;;;1700915;29;20251;-70
2022/04/03 08:18:01;;;;;;;7.60;6.90;;;10.60;97.20;;;;;;1700763;29;20744;-71
2022/04/03 08:18:53;;;;;;;6.97;6.37;;;10.60;97.20;;;;;;1700915;29;20749;-70
2022/04/03 08:19:43;;;;;;;7.15;6.45;;;10.50;97.20;;;;;;1700964;29;20207;-70
2022/04/03 08:20:36;;;;;;;7.50;6.90;;;10.60;97.20;;;;;;1701029;29;20659;-70
2022/04/03 08:21:26;;;;;;;6.97;6.38;;;10.60;97.20;;;;;;1700919;29;20210;-70
2022/04/03 08:22:19;;;;;;;9.33;6.67;;;10.60;97.20;;;;;;1700891;29;20245;-70
2022/04/03 08:23:10;;;;;;;7.05;6.45;;;10.60;97.20;;;;;;1700885;29;20702;-71
2022/04/03 08:24:02;;;;;;;7.03;6.43;;;10.50;97.20;;;;;;1701042;29;20605;-70
2022/04/03 08:24:53;;;;;;;8.15;7.35;;;10.40;97.20;;;;;;1700913;29;20730;-70
2022/04/03 08:25:45;;;;;;;7.03;6.43;;;10.30;97.20;;;;;;1698236;29;20616;-70
2022/04/03 08:26:35;;;;;;;7.22;6.53;;;10.30;97.20;;;;;;1700356;29;20207;-70
2022/04/03 08:27:42;;;;;;;6.63;6.13;;;10.20;97.20;;;;;;1700743;29;20242;-71
2022/04/03 08:28:34;;;;;;;7.32;6.60;;;10.20;97.20;;;;;;1700650;29;20203;-71
2022/04/03 08:29:24;;;;;;;7.00;6.38;;;10.10;97.20;;;;;;1700796;29;20694;-71
2022/04/03 08:30:19;;;;;;;7.23;6.63;;;10.10;97.20;;;;;;1700829;29;20685;-70
2022/04/03 08:31:10;;;;;;;6.90;6.22;;;10.00;97.20;;;;;;1697655;29;20210;-71
2022/04/03 08:32:03;;;;;;;7.30;6.73;;;10.00;97.20;;;;;;1694510;29;20727;-70
2022/04/03 08:32:54;;;;;;;7.57;7.03;;;9.90;97.20;;;;;;1694338;29;20569;-70
2022/04/03 08:33:47;;;;;;;7.30;6.70;;;9.90;97.20;;;;;;1694308;29;20550;-71
2022/04/03 08:34:38;;;;;;;7.47;6.80;;;9.90;97.20;;;;;;1694356;29;20484;-70
2022/04/03 08:35:31;;;;;;;7.20;6.60;;;9.90;97.20;;;;;;1694904;29;20211;-70
2022/04/03 08:36:22;;;;;;;7.35;6.65;;;9.90;97.20;;;;;;1700466;29;20203;-70
2022/04/03 08:37:14;;;;;;;7.80;7.00;;;9.90;97.20;;;;;;1700729;29;20294;-70
2022/04/03 08:38:07;;;;;;;6.95;5.85;;;9.90;97.20;;;;;;1700460;29;20973;-71
2022/04/03 08:38:59;;;;;;;7.20;6.50;;;9.90;97.20;;;;;;1700924;29;20290;-70
2022/04/03 08:39:50;;;;;;;6.25;5.75;;;9.90;97.20;;;;;;1700726;29;20210;-70
2022/04/03 08:40:44;;;;;;;7.00;6.40;;;9.90;97.20;;;;;;1700885;29;20206;-70
2022/04/03 08:41:35;;;;;;;6.60;6.10;;;9.90;97.20;;;;;;1700754;29;20235;-70
2022/04/03 08:42:27;;;;;;;6.30;5.80;;;9.90;97.20;;;;;;1700815;29;20666;-70
2022/04/03 08:43:19;;;;;;;6.47;5.95;;;9.90;97.20;;;;;;1700697;29;20229;-70
2022/04/03 08:44:10;;;;;;;6.30;5.80;;;9.90;97.20;;;;;;1700750;29;20767;-70
2022/04/03 08:45:02;;;;;;;6.50;5.95;;;9.90;97.20;;;;;;1700835;29;20227;-71
2022/04/03 08:45:54;;;;;;;7.07;6.47;;;10.00;97.20;;;;;;1698283;29;20212;-70
2022/04/03 08:46:46;;;;;;;6.43;5.80;;;10.00;97.20;;;;;;1694294;29;20208;-70
2022/04/03 08:47:43;;;;;;;6.75;6.15;;;10.10;97.20;;;;;;1694214;29;20208;-71
2022/04/03 08:48:34;;;;;;;7.05;6.45;;;10.10;97.20;;;;;;1693835;29;20676;-70
2022/04/03 08:49:28;;;;;;;7.82;7.00;;;10.10;97.20;;;;;;1694100;29;20566;-70
2022/04/03 08:50:23;;;;;;;6.88;6.30;;;10.20;97.20;;;;;;1694185;29;20231;-70
2022/04/03 08:51:16;;;;;;;7.30;6.60;;;10.30;97.20;;;;;;1694223;29;20295;-70
2022/04/03 08:52:09;;;;;;;6.68;6.18;;;10.30;97.20;;;;;;1694296;29;20332;-70
2022/04/03 08:53:03;;;;;;;10.00;6.40;;;10.40;97.20;;;;;;1694423;29;20287;-70
2022/04/03 08:53:55;;;;;;;6.80;6.30;;;10.40;97.20;;;;;;1694246;29;20208;-70
2022/04/03 08:54:47;;;;;;;6.65;6.05;;;10.50;97.20;;;;;;1694294;29;20204;-70
2022/04/03 08:55:38;;;;;;;6.80;6.28;;;10.50;97.20;;;;;;1695894;29;20204;-70
2022/04/03 08:56:30;;;;;;;7.83;7.03;;;10.50;97.20;;;;;;1700517;29;20195;-70
2022/04/03 08:57:21;;;;;;;7.60;6.90;;;10.60;97.20;;;;;;1700603;29;20203;-71
2022/04/03 08:58:13;;;;;;;7.10;6.50;;;10.60;97.20;;;;;;1700375;29;20211;-71
2022/04/03 08:59:03;;;;;;;6.93;6.32;;;10.70;97.20;;;;;;1700759;29;20215;-70
2022/04/03 08:59:56;;;;;;;7.30;6.30;;;10.70;97.20;;;;;;1700770;29;20203;-70
2022/04/03 09:00:47;;;;;;;6.82;5.40;;;10.70;97.20;;;;;;1700710;29;20203;-71
2022/04/03 09:01:38;;;;;;;6.20;5.60;;;10.70;97.20;;;;;;1700771;29;20207;-71
2022/04/03 09:02:29;;;;;;;5.75;5.18;;;10.80;97.20;;;;;;1700633;29;20729;-71
2022/04/03 09:03:21;;;;;;;6.33;5.80;;;10.80;97.20;;;;;;1700627;29;20655;-70
2022/04/03 09:04:11;;;;;;;6.20;5.40;;;10.90;97.20;;;;;;1700544;29;20269;-71
2022/04/03 09:05:05;;;;;;;6.93;6.20;;;11.00;97.20;;;;;;1698550;29;20227;-70
2022/04/03 09:06:16;;;;;;;6.32;5.53;;;11.00;97.20;;;;;;1697841;29;20210;-70
2022/04/03 09:07:06;;;;;;;6.38;5.78;;;11.20;97.20;;;;;;1700730;29;20218;-71
2022/04/03 09:08:01;;;;;;;6.30;5.70;;;11.40;97.20;;;;;;1700765;29;20278;-70
2022/04/03 09:08:52;;;;;;;6.15;5.65;;;11.40;97.20;;;;;;1700625;29;20199;-71
2022/04/03 09:09:48;;;;;;;6.57;5.97;;;11.50;97.20;;;;;;1700765;29;20211;-71
2022/04/03 09:10:41;;;;;;;5.47;5.07;;;11.60;97.20;;;;;;1700795;29;20450;-71
2022/04/03 09:11:32;;;;;;;5.90;5.40;;;11.60;97.20;;;;;;1700654;29;20210;-71
2022/04/03 09:12:24;;;;;;;6.33;5.83;;;11.60;97.20;;;;;;1700576;29;20207;-72
2022/04/03 09:13:24;;;;;;;6.80;6.30;;;11.70;97.20;;;;;;1700529;29;20210;-71
2022/04/03 09:14:19;;;;;;;5.90;5.40;;;11.80;97.20;;;;;;1700475;29;20322;-71
2022/04/03 09:15:14;;;;;;;6.65;6.05;;;11.90;97.20;;;;;;1700681;29;20249;-72
2022/04/03 09:16:06;;;;;;;6.78;6.18;;;12.10;97.20;;;;;;1696977;29;20208;-72
2022/04/03 09:16:58;;;;;;;6.47;5.88;;;12.20;97.20;;;;;;1693859;29;20204;-71
2022/04/03 09:17:52;;;;;;;7.10;6.18;;;12.40;97.20;;;;;;1694069;29;20211;-72
2022/04/03 09:18:45;;;;;;;6.07;5.50;;;12.90;97.20;;;;;;1693836;29;20214;-71
2022/04/03 09:19:36;;;;;;;7.10;6.50;;;14.10;96.40;;;;;;1693915;29;20204;-71
2022/04/03 09:20:30;;;;;;;7.00;6.30;;;15.70;95.10;;;;;;1699699;29;20302;-71
2022/04/03 09:21:23;;;;;;;6.00;5.40;;;17.60;92.90;;;;;;1700052;29;20203;-71
2022/04/03 09:22:15;;;;;;;6.25;5.68;;;19.60;89.70;;;;;;1699513;29;20481;-71
2022/04/03 09:23:06;;;;;;;5.63;5.13;;;21.20;86.40;;;;;;1700662;29;20218;-71
2022/04/03 09:24:00;;;;;;;5.38;4.97;;;22.70;83.30;;;;;;1697832;29;20654;-71
2022/04/03 09:24:52;;;;;;;5.63;5.13;;;24.30;80.80;;;;;;1694030;29;20213;-71
2022/04/03 09:25:44;;;;;;;5.75;5.25;;;25.60;78.00;;;;;;1696171;29;20734;-71
2022/04/03 09:26:36;;;;;;;5.65;5.20;;;26.50;75.10;;;;;;1700313;29;20253;-71
2022/04/03 09:27:28;;;;;;;5.47;5.07;;;27.00;72.50;;;;;;1700497;29;20203;-71
2022/04/03 09:28:18;;;;;;;6.00;5.40;;;27.30;71.30;;;;;;1700111;29;20231;-71
2022/04/03 09:29:15;;;;;;;5.90;5.30;;;27.60;70.40;;;;;;1700553;29;20201;-71
2022/04/03 09:30:07;;;;;;;5.05;4.65;;;28.10;69.50;;;;;;1700608;29;20612;-71